Time;durP1;ratioP1;P1;durP2;ratioP2;P2;SDS_P1;SDS_P2;PMS_P1;PMS_P2;Temp;Humidity;BMP_temperature;BMP_pressure;BME280_temperature;BME280_humidity;BME280_pressure;Samples;Min_cycle;Max_cycle;Signal;HPM_P1;HPM_P2
2022/12/14 00:00:58;;;;;;;20.67;11.67;;;-2.60;1.00;;;;;;5023157;28;20450;-58
2022/12/14 00:03:24;;;;;;;19.27;11.77;;;-2.60;1.00;;;;;;5031705;28;20766;-63
2022/12/14 00:05:50;;;;;;;16.97;11.50;;;-2.60;99.90;;;;;;5031144;28;20175;-61
2022/12/14 00:08:16;;;;;;;17.40;11.77;;;-2.50;99.90;;;;;;5030914;28;20167;-64
2022/12/14 00:10:43;;;;;;;17.87;12.67;;;-3.20;47.70;;;;;;5016569;28;20176;-61
2022/12/14 00:13:13;;;;;;;17.50;12.93;;;-2.90;99.90;;;;;;5041724;28;20505;-61
2022/12/14 00:15:39;;;;;;;17.10;11.87;;;-2.70;1.00;;;;;;5030541;28;20426;-63
2022/12/14 00:18:05;;;;;;;20.77;12.47;;;-2.60;1.00;;;;;;5030594;28;20675;-63
2022/12/14 00:20:32;;;;;;;19.50;12.73;;;-2.50;1.00;;;;;;5028161;28;20537;-62
2022/12/14 00:22:57;;;;;;;17.60;12.37;;;-2.40;1.00;;;;;;5029720;28;20245;-61
2022/12/14 00:25:24;;;;;;;15.97;12.67;;;-2.40;99.90;;;;;;5030209;28;20434;-64
2022/12/14 00:27:49;;;;;;;16.20;11.73;;;-2.20;99.90;;;;;;5029735;28;20515;-64
2022/12/14 00:30:18;;;;;;;20.13;15.57;;;-2.20;99.90;;;;;;5028775;28;20457;-64
2022/12/14 00:32:44;;;;;;;20.20;11.80;;;-2.20;99.90;;;;;;5029549;28;20197;-64
2022/12/14 00:35:12;;;;;;;19.00;13.07;;;-2.30;99.90;;;;;;5030290;28;20395;-63
2022/12/14 00:37:38;;;;;;;20.27;12.90;;;-2.20;99.90;;;;;;5030699;28;20505;-63
2022/12/14 00:40:05;;;;;;;20.17;12.73;;;-2.60;99.90;;;;;;5030054;28;20544;-61
2022/12/14 00:42:31;;;;;;;15.70;10.80;;;-2.80;1.00;;;;;;5030530;28;20678;-62
2022/12/14 00:45:01;;;;;;;18.67;12.80;;;-2.60;1.00;;;;;;5032364;28;20418;-58
2022/12/14 00:47:27;;;;;;;20.53;12.63;;;-2.60;1.00;;;;;;5033040;28;20800;-61
2022/12/14 00:49:52;;;;;;;18.97;12.97;;;-2.70;1.00;;;;;;5030875;28;20457;-64
2022/12/14 00:52:18;;;;;;;16.43;11.97;;;-2.50;1.00;;;;;;5035059;28;20511;-60
2022/12/14 00:54:44;;;;;;;17.27;12.53;;;-2.80;1.00;;;;;;5032791;28;20602;-64
2022/12/14 00:57:10;;;;;;;18.10;12.30;;;-3.20;1.00;;;;;;5032056;28;20176;-62
2022/12/14 00:59:35;;;;;;;19.33;13.00;;;-3.40;99.90;;;;;;5030572;28;20227;-61
2022/12/14 01:02:01;;;;;;;17.77;12.47;;;-3.50;99.90;;;;;;5030343;28;20433;-59
2022/12/14 01:04:27;;;;;;;19.70;12.40;;;-3.10;1.00;;;;;;5032363;28;20176;-60
2022/12/14 01:06:54;;;;;;;23.57;14.17;;;-2.80;1.00;;;;;;5031178;28;20407;-56
2022/12/14 01:09:22;;;;;;;19.10;13.10;;;-2.90;99.90;;;;;;5036104;28;20460;-58
2022/12/14 01:11:48;;;;;;;19.03;14.10;;;-2.70;1.00;;;;;;5031584;28;21001;-61
2022/12/14 01:14:16;;;;;;;22.00;12.60;;;-2.70;1.00;;;;;;5038682;28;20484;-60
2022/12/14 01:16:42;;;;;;;20.20;12.73;;;-2.80;1.00;;;;;;5038217;28;20175;-57
2022/12/14 01:19:10;;;;;;;14.70;12.60;;;-2.90;1.00;;;;;;5039096;28;20422;-61
2022/12/14 01:21:35;;;;;;;21.93;14.40;;;-3.00;1.00;;;;;;5036480;28;20529;-59
2022/12/14 01:24:03;;;;;;;17.87;12.00;;;-2.90;1.00;;;;;;5040217;28;20426;-59
2022/12/14 01:26:32;;;;;;;17.07;12.20;;;-2.90;1.00;;;;;;5044232;28;20370;-61
2022/12/14 01:28:58;;;;;;;18.80;12.37;;;-2.80;1.00;;;;;;5044449;28;20513;-61
2022/12/14 01:31:27;;;;;;;20.37;12.00;;;-2.90;1.00;;;;;;5042067;28;20520;-60
2022/12/14 01:33:53;;;;;;;20.50;12.37;;;-2.60;1.00;;;;;;5039904;28;20533;-63
2022/12/14 01:36:24;;;;;;;21.27;13.27;;;-3.10;1.00;;;;;;5039362;28;20398;-64
2022/12/14 01:38:55;;;;;;;23.77;13.73;;;-3.50;1.00;;;;;;5036848;28;20463;-61
2022/12/14 01:41:45;;;;;;;20.20;12.60;;;-3.10;1.00;;;;;;5043066;28;20437;-64
2022/12/14 01:44:11;;;;;;;19.77;14.97;;;-2.90;1.00;;;;;;5036915;28;20773;-61
2022/12/14 01:46:59;;;;;;;17.27;12.93;;;-2.80;1.00;;;;;;5034240;28;20729;-59
2022/12/14 01:49:47;;;;;;;14.90;11.60;;;-2.60;1.00;;;;;;5033854;28;20575;-59
2022/12/14 01:52:16;;;;;;;19.57;12.70;;;-2.90;1.00;;;;;;5031494;28;20773;-58
2022/12/14 01:55:05;;;;;;;20.77;13.60;;;-3.00;1.00;;;;;;5032037;28;20965;-59
2022/12/14 01:58:27;;;;;;;18.50;13.33;;;-2.90;97.20;;;;;;5031513;28;20423;-60
2022/12/14 02:00:56;;;;;;;20.10;12.57;;;-2.90;1.00;;;;;;4970151;28;20444;-61
2022/12/14 02:03:23;;;;;;;22.80;13.47;;;-2.70;1.00;;;;;;5021978;28;20448;-64
2022/12/14 02:05:57;;;;;;;18.33;12.90;;;-2.70;1.00;;;;;;5032724;28;20456;-62
2022/12/14 02:08:24;;;;;;;23.53;14.03;;;-2.60;1.00;;;;;;5027427;28;20941;-64
2022/12/14 02:10:52;;;;;;;19.27;13.03;;;-2.60;1.00;;;;;;5031069;28;20398;-63
2022/12/14 02:13:21;;;;;;;20.60;13.90;;;-2.50;1.00;;;;;;5032569;28;20453;-61
2022/12/14 02:15:47;;;;;;;20.40;12.77;;;-2.50;1.00;;;;;;5032144;28;20815;-62
2022/12/14 02:18:33;;;;;;;19.10;12.10;;;-2.70;1.00;;;;;;5029373;28;20439;-60
2022/12/14 02:21:15;;;;;;;22.40;12.30;;;-2.70;1.00;;;;;;5031042;28;20852;-61
2022/12/14 02:24:02;;;;;;;21.07;12.67;;;-2.80;99.90;;;;;;5032609;28;20410;-61
2022/12/14 02:26:54;;;;;;;21.63;14.23;;;-3.10;99.90;;;;;;5031871;28;20402;-65
2022/12/14 02:29:35;;;;;;;23.33;14.67;;;-2.80;99.90;;;;;;5007339;28;20549;-63
2022/12/14 02:32:13;;;;;;;21.97;12.30;;;-3.00;1.00;;;;;;5031239;28;20406;-62
2022/12/14 02:35:12;;;;;;;18.80;14.30;;;-2.60;24.80;;;;;;5011922;28;20863;-63
2022/12/14 02:37:49;;;;;;;27.47;14.30;;;-2.60;99.90;;;;;;5011987;28;20774;-64
2022/12/14 02:40:31;;;;;;;22.17;14.33;;;-2.50;99.90;;;;;;5031047;28;20845;-65
2022/12/14 02:43:03;;;;;;;21.47;15.17;;;-2.70;1.00;;;;;;5031043;28;20493;-62
2022/12/14 02:45:46;;;;;;;16.60;12.87;;;-2.90;1.00;;;;;;5031489;28;20398;-63
2022/12/14 02:48:21;;;;;;;28.73;15.87;;;-2.90;49.00;;;;;;5031483;28;20418;-61
2022/12/14 02:51:04;;;;;;;22.67;15.67;;;-2.60;99.90;;;;;;5031048;28;20430;-64
2022/12/14 02:53:40;;;;;;;20.63;14.47;;;-2.40;99.90;;;;;;5031907;28;20616;-65
2022/12/14 02:56:11;;;;;;;22.43;14.27;;;-2.40;1.00;;;;;;5030272;28;20437;-64
2022/12/14 03:01:13;;;;;;;18.50;14.37;;;-2.50;99.90;;;;;;5008368;28;20820;-62
2022/12/14 03:03:39;;;;;;;22.03;14.87;;;-2.60;99.90;;;;;;5010679;28;20460;-62
2022/12/14 03:06:24;;;;;;;23.20;14.23;;;-2.60;34.80;;;;;;5007373;28;21031;-62
2022/12/14 03:09:00;;;;;;;21.80;14.60;;;-2.50;1.00;;;;;;5010904;28;20423;-61
2022/12/14 03:11:44;;;;;;;19.30;12.80;;;-2.60;1.00;;;;;;5009999;28;20782;-62
2022/12/14 03:14:28;;;;;;;21.00;14.83;;;-2.40;1.00;;;;;;5008088;28;20446;-62
2022/12/14 03:16:59;;;;;;;21.50;13.73;;;-2.20;1.00;;;;;;5006557;28;20403;-63
2022/12/14 03:19:30;;;;;;;24.63;13.90;;;-2.30;99.90;;;;;;5010237;28;20425;-62
2022/12/14 03:22:01;;;;;;;22.53;13.30;;;-2.50;1.00;;;;;;5009678;28;20400;-63
2022/12/14 03:24:43;;;;;;;18.00;13.50;;;-2.50;1.00;;;;;;5009252;28;20454;-62
2022/12/14 03:27:15;;;;;;;20.57;14.03;;;-3.00;99.90;;;;;;5009193;28;20940;-63
2022/12/14 03:29:49;;;;;;;19.20;14.27;;;-2.80;1.00;;;;;;5010146;28;20427;-63
2022/12/14 03:32:18;;;;;;;21.20;13.57;;;-2.50;99.00;;;;;;5009157;28;20426;-63
2022/12/14 03:34:55;;;;;;;21.90;13.90;;;-2.50;1.00;;;;;;5008769;28;20803;-62
2022/12/14 03:37:48;;;;;;;16.10;12.77;;;-2.70;1.00;;;;;;5002333;28;20417;-62
2022/12/14 03:40:15;;;;;;;25.50;15.40;;;-3.00;32.20;;;;;;5009506;28;20438;-63
2022/12/14 03:43:10;;;;;;;20.50;14.00;;;-2.80;1.00;;;;;;5009199;28;20446;-63
2022/12/14 03:45:51;;;;;;;21.00;13.40;;;-2.60;1.00;;;;;;5008993;28;20533;-62
2022/12/14 03:48:48;;;;;;;18.23;13.10;;;-2.50;1.00;;;;;;5009198;28;20414;-63
2022/12/14 03:51:37;;;;;;;19.63;13.10;;;-2.60;1.00;;;;;;5004231;28;20415;-62
2022/12/14 03:54:18;;;;;;;18.13;13.60;;;-2.60;1.00;;;;;;5008251;28;20578;-63
2022/12/14 03:56:58;;;;;;;23.07;14.20;;;-2.60;99.90;;;;;;5008640;28;20411;-63
2022/12/14 03:59:37;;;;;;;21.10;12.97;;;-2.70;1.00;;;;;;5009249;28;20443;-63
2022/12/14 04:02:12;;;;;;;18.17;13.60;;;-2.60;1.00;;;;;;5007851;28;20407;-63
2022/12/14 04:04:58;;;;;;;25.50;14.10;;;-2.40;99.90;;;;;;5009402;28;20840;-63
2022/12/14 04:07:49;;;;;;;24.83;13.53;;;-2.40;1.00;;;;;;4989600;28;20416;-63
2022/12/14 04:19:01;;;;;;;20.10;14.20;;;-2.50;99.90;;;;;;5009992;28;20434;-63
2022/12/14 04:21:53;;;;;;;21.67;14.07;;;-3.00;1.00;;;;;;5004304;28;20743;-63
2022/12/14 04:27:27;;;;;;;20.57;13.20;;;-2.30;1.00;;;;;;5009132;28;20914;-63
2022/12/14 04:29:55;;;;;;;19.73;12.90;;;-2.20;1.00;;;;;;5008457;28;20458;-61
2022/12/14 04:32:54;;;;;;;24.40;14.03;;;-2.30;1.00;;;;;;5006689;28;20411;-62
2022/12/14 04:35:40;;;;;;;24.00;15.47;;;-2.30;99.90;;;;;;4989645;28;20499;-62
2022/12/14 04:38:18;;;;;;;19.20;13.43;;;-2.10;1.00;;;;;;4989536;28;20420;-62
2022/12/14 04:40:56;;;;;;;25.50;14.70;;;-2.40;23.00;;;;;;5001091;28;20814;-62
2022/12/14 04:43:32;;;;;;;21.07;14.87;;;-2.30;1.00;;;;;;4998659;28;20479;-62
2022/12/14 04:46:07;;;;;;;20.60;14.07;;;-2.50;22.50;;;;;;4989251;28;20856;-62
2022/12/14 04:48:35;;;;;;;20.47;14.80;;;-2.50;99.90;;;;;;4989363;28;20415;-65
2022/12/14 04:51:09;;;;;;;22.00;15.30;;;-2.30;1.00;;;;;;5003785;28;20514;-63
2022/12/14 04:53:38;;;;;;;22.40;14.87;;;-2.30;1.00;;;;;;5008649;28;20454;-62
2022/12/14 04:56:31;;;;;;;23.73;16.63;;;-2.60;1.00;;;;;;5008261;28;20443;-62
2022/12/14 04:58:57;;;;;;;24.23;14.47;;;-2.60;1.00;;;;;;5008891;28;20439;-63
2022/12/14 05:01:38;;;;;;;22.17;15.50;;;-2.80;1.00;;;;;;4996990;28;20518;-63
2022/12/14 05:04:12;;;;;;;23.23;16.07;;;-2.50;1.00;;;;;;5010883;28;20406;-64
2022/12/14 05:06:44;;;;;;;21.47;15.40;;;-2.60;1.00;;;;;;5012801;28;20496;-64
2022/12/14 05:09:12;;;;;;;24.43;15.83;;;-2.60;1.00;;;;;;5012394;28;20427;-63
2022/12/14 05:11:50;;;;;;;25.27;14.67;;;-2.70;1.00;;;;;;5006068;28;20535;-62
2022/12/14 05:14:25;;;;;;;26.40;16.37;;;-2.80;1.00;;;;;;5012456;28;20569;-64
2022/12/14 05:16:51;;;;;;;26.10;17.40;;;-2.50;99.90;;;;;;5010943;28;20994;-63
2022/12/14 05:19:17;;;;;;;34.43;15.30;;;-2.60;1.00;;;;;;5011159;28;20438;-63
2022/12/14 05:21:45;;;;;;;25.10;15.80;;;-2.90;1.00;;;;;;5007159;28;20423;-63
2022/12/14 05:24:11;;;;;;;20.30;15.10;;;-3.00;1.00;;;;;;5012222;28;20177;-63
2022/12/14 05:26:37;;;;;;;29.03;17.40;;;-2.60;1.00;;;;;;5011847;28;20415;-63
2022/12/14 05:29:03;;;;;;;21.60;15.23;;;-2.40;1.00;;;;;;5011378;28;20196;-63
2022/12/14 05:31:29;;;;;;;26.13;16.80;;;-2.40;1.00;;;;;;5011530;28;20467;-63
2022/12/14 05:33:54;;;;;;;20.97;16.07;;;-2.60;1.00;;;;;;4997712;28;20775;-64
2022/12/14 05:36:20;;;;;;;22.13;16.40;;;-2.30;99.90;;;;;;4993076;28;20205;-64
2022/12/14 05:38:46;;;;;;;25.80;16.53;;;-2.40;1.00;;;;;;4996600;28;20679;-63
2022/12/14 05:41:13;;;;;;;24.53;16.97;;;-2.10;99.90;;;;;;5001606;28;20414;-63
2022/12/14 05:43:39;;;;;;;23.70;16.00;;;-2.30;99.90;;;;;;5006106;28;20211;-63
2022/12/14 05:46:05;;;;;;;21.53;15.80;;;-2.00;99.90;;;;;;5008967;28;21233;-63
2022/12/14 05:48:32;;;;;;;21.70;16.00;;;-2.00;99.90;;;;;;5011913;28;20523;-62
2022/12/14 05:51:06;;;;;;;22.67;15.43;;;-2.10;1.00;;;;;;5023241;28;20203;-63
2022/12/14 05:53:32;;;;;;;21.47;14.80;;;-2.30;1.00;;;;;;5022196;28;21029;-64
2022/12/14 05:55:58;;;;;;;24.23;15.77;;;-2.20;99.90;;;;;;5031012;28;20488;-63
2022/12/14 05:58:23;;;;;;;22.40;15.53;;;-2.10;38.10;;;;;;5031332;28;20727;-64
2022/12/14 06:00:49;;;;;;;23.13;16.00;;;-2.30;99.90;;;;;;5032385;28;20299;-64
2022/12/14 06:03:15;;;;;;;21.03;15.47;;;-2.20;99.90;;;;;;5033455;28;20245;-64
2022/12/14 06:05:41;;;;;;;24.43;15.97;;;-2.20;1.00;;;;;;5032025;28;20180;-64
2022/12/14 06:08:06;;;;;;;27.40;16.67;;;-2.40;1.00;;;;;;5031885;28;20266;-64
2022/12/14 06:10:32;;;;;;;22.53;15.80;;;-2.10;1.00;;;;;;5026930;28;20211;-64
2022/12/14 06:12:58;;;;;;;23.97;15.50;;;-2.00;1.00;;;;;;5025975;28;20674;-63
2022/12/14 06:15:23;;;;;;;20.20;13.70;;;-2.00;1.00;;;;;;5030436;28;20660;-64
2022/12/14 06:17:49;;;;;;;19.93;16.87;;;-2.20;1.00;;;;;;5031159;28;20554;-64
2022/12/14 06:20:15;;;;;;;22.30;15.40;;;-2.40;1.00;;;;;;5022192;28;20203;-65
2022/12/14 06:22:41;;;;;;;25.10;17.10;;;-2.20;1.00;;;;;;5030529;28;20191;-65
2022/12/14 06:25:07;;;;;;;25.00;15.50;;;-2.30;1.00;;;;;;5031409;28;20457;-64
2022/12/14 06:27:33;;;;;;;26.03;17.13;;;-2.20;1.00;;;;;;5028076;28;20222;-65
2022/12/14 06:29:59;;;;;;;24.20;15.50;;;-2.30;84.00;;;;;;5029367;28;20535;-65
2022/12/14 06:32:24;;;;;;;24.37;15.90;;;-2.40;1.00;;;;;;5026027;28;20927;-63
2022/12/14 06:34:50;;;;;;;24.80;16.40;;;-2.30;1.00;;;;;;5029902;28;20542;-62
2022/12/14 06:37:16;;;;;;;25.43;18.60;;;-2.50;99.90;;;;;;5028474;28;20272;-70
2022/12/14 06:39:41;;;;;;;22.13;16.83;;;-2.30;1.00;;;;;;5025256;28;20191;-65
2022/12/14 06:42:07;;;;;;;21.27;14.77;;;-2.10;1.00;;;;;;5024767;28;20704;-65
2022/12/14 06:44:33;;;;;;;21.90;15.63;;;-2.30;99.90;;;;;;5026377;28;20180;-65
2022/12/14 06:46:59;;;;;;;23.70;15.87;;;-2.10;1.00;;;;;;5023363;28;20268;-60
2022/12/14 06:49:25;;;;;;;27.70;17.07;;;-2.00;99.90;;;;;;5028246;28;20192;-62
2022/12/14 06:51:51;;;;;;;28.03;16.00;;;-2.30;13.10;;;;;;5023611;28;20604;-62
2022/12/14 06:54:18;;;;;;;25.87;17.17;;;-2.20;1.00;;;;;;5023979;28;20366;-63
2022/12/14 06:56:45;;;;;;;25.13;16.50;;;-2.00;99.90;;;;;;5025428;28;20180;-64
2022/12/14 06:59:12;;;;;;;25.27;16.00;;;-2.20;99.90;;;;;;5024398;28;20554;-63
2022/12/14 07:01:38;;;;;;;23.53;16.30;;;-2.10;99.90;;;;;;5024598;28;20516;-64
2022/12/14 07:04:05;;;;;;;30.23;17.57;;;-2.20;99.90;;;;;;5017754;28;20465;-64
2022/12/14 07:06:35;;;;;;;22.27;16.07;;;-1.90;99.90;;;;;;5026336;28;21076;-63
2022/12/14 07:09:02;;;;;;;27.50;17.00;;;-1.80;1.00;;;;;;5024833;28;20446;-64
2022/12/14 07:11:29;;;;;;;21.50;16.03;;;-1.80;99.90;;;;;;5023812;28;20449;-64
2022/12/14 07:13:55;;;;;;;26.03;16.20;;;-2.00;99.90;;;;;;5019442;28;20463;-64
2022/12/14 07:16:24;;;;;;;26.23;17.80;;;-2.20;1.00;;;;;;5021958;28;20434;-64
2022/12/14 07:18:51;;;;;;;30.10;18.00;;;-2.20;1.00;;;;;;5021150;28;20426;-63
2022/12/14 07:21:18;;;;;;;26.87;17.27;;;-2.00;93.40;;;;;;5020227;28;20767;-64
2022/12/14 07:23:45;;;;;;;22.80;16.00;;;-1.80;99.90;;;;;;5021021;28;20522;-63
2022/12/14 07:26:17;;;;;;;23.60;16.47;;;-1.80;1.00;;;;;;5019183;28;20445;-64
2022/12/14 07:28:44;;;;;;;26.73;16.00;;;-1.70;1.00;;;;;;5025919;28;20938;-64
2022/12/14 07:31:15;;;;;;;34.40;17.97;;;-1.70;99.90;;;;;;5024294;28;20467;-64
2022/12/14 07:33:41;;;;;;;24.03;16.83;;;-1.70;99.90;;;;;;5021289;28;21017;-64
2022/12/14 07:36:18;;;;;;;29.47;17.60;;;-1.60;1.00;;;;;;5024864;28;20431;-64
2022/12/14 07:38:46;;;;;;;34.07;18.53;;;-1.60;99.90;;;;;;5019719;28;20774;-64
2022/12/14 07:41:24;;;;;;;27.23;18.17;;;-1.50;1.00;;;;;;5025322;28;20467;-63
2022/12/14 07:43:51;;;;;;;26.70;17.47;;;-1.60;1.00;;;;;;5025959;28;20430;-64
2022/12/14 07:46:20;;;;;;;26.23;17.27;;;-1.40;99.90;;;;;;5018944;28;20426;-64
2022/12/14 07:48:49;;;;;;;27.20;18.20;;;-1.50;1.00;;;;;;5020576;28;20422;-64
2022/12/14 07:51:17;;;;;;;26.03;18.60;;;-1.70;1.00;;;;;;5026052;28;20438;-62
2022/12/14 07:53:43;;;;;;;24.53;18.10;;;-1.90;1.00;;;;;;5023539;28;20462;-65
2022/12/14 07:56:12;;;;;;;26.33;17.03;;;-1.80;1.00;;;;;;5028124;28;20776;-64
2022/12/14 07:58:38;;;;;;;26.43;19.00;;;-1.90;99.90;;;;;;5027227;28;20180;-64
2022/12/14 08:01:26;;;;;;;30.47;19.10;;;-1.90;1.00;;;;;;5027887;28;20805;-63
2022/12/14 08:03:55;;;;;;;27.30;18.70;;;-1.80;1.00;;;;;;5022457;28;20435;-63
2022/12/14 08:06:22;;;;;;;41.00;21.10;;;-1.80;99.90;;;;;;5022066;28;20891;-64
2022/12/14 08:08:49;;;;;;;27.80;18.77;;;-1.90;1.00;;;;;;5026650;28;20540;-63
2022/12/14 08:11:17;;;;;;;38.30;18.40;;;-1.90;1.00;;;;;;5017293;28;20434;-63
2022/12/14 08:13:43;;;;;;;26.73;17.60;;;-1.80;1.00;;;;;;5025995;28;20458;-63
2022/12/14 08:16:14;;;;;;;27.67;17.63;;;-1.90;1.00;;;;;;5024317;28;20438;-63
2022/12/14 08:18:41;;;;;;;31.20;19.07;;;-2.10;99.90;;;;;;5023522;28;20439;-63
2022/12/14 08:21:08;;;;;;;29.17;19.00;;;-2.10;17.30;;;;;;5028363;28;20407;-64
2022/12/14 08:23:35;;;;;;;25.37;18.40;;;-1.70;1.00;;;;;;5028513;28;20421;-64
2022/12/14 08:26:02;;;;;;;28.50;18.30;;;-1.70;1.00;;;;;;5026163;28;21022;-63
2022/12/14 08:28:29;;;;;;;28.93;16.87;;;-1.60;1.00;;;;;;5023017;28;20944;-64
2022/12/14 08:30:55;;;;;;;26.13;17.43;;;-1.50;1.00;;;;;;5025975;28;20464;-64
2022/12/14 08:33:21;;;;;;;26.77;17.60;;;-1.60;1.00;;;;;;5028046;28;20556;-64
2022/12/14 08:35:47;;;;;;;29.17;18.93;;;-1.50;1.00;;;;;;5026970;28;20171;-64
2022/12/14 08:38:13;;;;;;;31.37;20.00;;;-1.60;99.90;;;;;;5024521;28;20445;-64
2022/12/14 08:40:39;;;;;;;23.30;18.00;;;-1.60;1.00;;;;;;5024706;28;20230;-64
2022/12/14 08:43:06;;;;;;;31.67;18.97;;;-1.70;99.90;;;;;;5026880;28;20589;-64
2022/12/14 08:45:32;;;;;;;26.57;17.90;;;-1.80;1.00;;;;;;5026899;28;20430;-64
2022/12/14 08:47:59;;;;;;;28.40;18.53;;;-1.80;99.90;;;;;;5023672;28;20406;-64
2022/12/14 08:50:28;;;;;;;32.47;19.77;;;-2.00;99.90;;;;;;5027231;28;20474;-64
2022/12/14 08:52:55;;;;;;;26.77;17.43;;;-1.60;24.10;;;;;;5026967;28;21005;-63
2022/12/14 08:55:22;;;;;;;26.43;19.00;;;-1.40;1.00;;;;;;5026894;28;20463;-63
2022/12/14 08:57:48;;;;;;;24.40;17.67;;;-1.30;23.60;;;;;;5026668;28;20493;-64
2022/12/14 09:00:14;;;;;;;28.20;17.77;;;-1.50;1.00;;;;;;5059385;23;20987;-57
2022/12/14 09:02:40;;;;;;;30.97;21.53;;;-1.30;99.90;;;;;;5051599;28;20476;-58
2022/12/14 09:05:06;;;;;;;28.47;19.33;;;-1.30;1.00;;;;;;5044741;28;20583;-59
2022/12/14 09:07:32;;;;;;;25.73;18.90;;;-1.30;1.00;;;;;;5048490;28;20181;-61
2022/12/14 09:09:58;;;;;;;32.20;20.93;;;-1.10;99.90;;;;;;5049840;28;20957;-57
2022/12/14 09:12:24;;;;;;;25.13;18.53;;;-1.10;99.90;;;;;;5047583;28;20262;-60
2022/12/14 09:14:50;;;;;;;32.90;20.53;;;-0.90;1.00;;;;;;5046101;28;20194;-58
2022/12/14 09:17:16;;;;;;;27.43;19.80;;;-0.60;1.00;;;;;;5047530;28;20506;-61
2022/12/14 09:19:42;;;;;;;45.47;20.73;;;-0.60;1.00;;;;;;5033554;28;20453;-58
2022/12/14 09:22:08;;;;;;;33.90;18.57;;;-0.40;1.00;;;;;;5045309;28;20429;-63
2022/12/14 09:24:34;;;;;;;30.00;18.87;;;-0.40;1.00;;;;;;5048866;28;20175;-65
2022/12/14 09:27:01;;;;;;;22.00;17.87;;;-0.50;99.90;;;;;;5049621;28;20457;-63
2022/12/14 09:29:27;;;;;;;29.80;19.50;;;-0.50;99.90;;;;;;5049384;28;20449;-60
2022/12/14 09:31:54;;;;;;;30.77;18.93;;;-0.50;1.00;;;;;;5047070;28;20438;-64
2022/12/14 09:34:24;;;;;;;26.33;17.53;;;-0.40;1.00;;;;;;5056114;28;20465;-64
2022/12/14 09:36:51;;;;;;;23.70;17.23;;;-0.30;1.00;;;;;;5055447;28;20433;-61
2022/12/14 09:39:17;;;;;;;24.87;17.70;;;-0.20;1.00;;;;;;5057945;28;20436;-65
2022/12/14 09:42:06;;;;;;;32.67;20.37;;;-0.50;99.90;;;;;;5060821;28;20441;-60
2022/12/14 09:44:55;;;;;;;29.40;19.80;;;-0.80;1.00;;;;;;5054919;28;20187;-62
2022/12/14 09:47:28;;;;;;;28.00;20.73;;;-0.90;99.90;;;;;;5052082;28;20437;-61
2022/12/14 09:50:11;;;;;;;32.77;22.07;;;-1.00;99.90;;;;;;5055100;28;20457;-62
2022/12/14 09:52:50;;;;;;;30.47;22.33;;;-0.90;99.90;;;;;;5051101;28;20444;-65
2022/12/14 09:55:31;;;;;;;37.57;20.27;;;-1.10;1.00;;;;;;5053217;28;20468;-63
2022/12/14 09:58:29;;;;;;;30.20;21.40;;;-0.90;99.90;;;;;;5050149;28;20433;-63
2022/12/14 10:01:21;;;;;;;31.10;23.00;;;-1.10;1.00;;;;;;5046185;28;21312;-64
2022/12/14 10:04:17;;;;;;;27.43;19.30;;;-1.10;99.90;;;;;;5051500;28;20862;-65
2022/12/14 10:06:51;;;;;;;24.70;19.00;;;-0.90;1.00;;;;;;5048936;28;20437;-65
2022/12/14 10:09:31;;;;;;;28.00;18.67;;;-0.80;1.00;;;;;;5051695;28;20762;-66
2022/12/14 10:12:19;;;;;;;28.37;18.37;;;-0.50;1.00;;;;;;5049896;28;20527;-66
2022/12/14 10:14:48;;;;;;;30.13;18.83;;;-0.40;1.00;;;;;;5050586;28;20475;-65
2022/12/14 10:17:25;;;;;;;28.43;18.93;;;-0.30;1.00;;;;;;5050753;28;20489;-65
2022/12/14 10:19:56;;;;;;;25.90;19.60;;;-0.20;21.60;;;;;;5050522;28;20460;-65
2022/12/14 10:22:36;;;;;;;29.00;18.23;;;-0.20;1.00;;;;;;5049829;28;20467;-65
2022/12/14 10:25:17;;;;;;;24.90;19.00;;;-0.10;19.60;;;;;;5050563;28;20432;-65
2022/12/14 10:27:53;;;;;;;27.13;17.20;;;-0.40;99.90;;;;;;5048182;28;20429;-65
2022/12/14 10:30:23;;;;;;;26.50;18.50;;;-0.30;1.00;;;;;;5045707;28;20472;-64
2022/12/14 10:33:12;;;;;;;46.17;18.37;;;-0.30;1.00;;;;;;5050886;28;20527;-65
2022/12/14 10:35:46;;;;;;;46.23;19.97;;;-0.10;99.90;;;;;;5043734;28;20441;-65
2022/12/14 10:38:23;;;;;;;33.60;21.00;;;0.20;1.00;;;;;;5051795;28;20479;-64
2022/12/14 10:40:54;;;;;;;25.93;19.60;;;0.40;99.90;;;;;;5051873;28;20437;-64
2022/12/14 10:43:30;;;;;;;22.40;18.33;;;-0.20;99.90;;;;;;5045791;28;20945;-65
2022/12/14 10:46:14;;;;;;;23.93;16.90;;;-0.30;19.00;;;;;;5050011;28;20484;-64
2022/12/14 10:49:02;;;;;;;45.70;19.43;;;-0.50;1.00;;;;;;5048291;28;20524;-65
2022/12/14 10:51:36;;;;;;;52.03;20.37;;;-0.20;99.90;;;;;;5051327;28;20843;-66
2022/12/14 10:54:25;;;;;;;28.47;17.93;;;-0.30;99.90;;;;;;5054483;28;20457;-65
2022/12/14 10:56:51;;;;;;;143.63;30.87;;;-0.30;99.90;;;;;;5059854;28;20491;-65
2022/12/14 10:59:16;;;;;;;48.10;21.83;;;0.20;1.00;;;;;;5061695;28;20992;-64
2022/12/14 11:01:44;;;;;;;27.60;18.30;;;0.40;1.00;;;;;;5059656;28;20175;-64
2022/12/14 11:04:37;;;;;;;32.80;18.30;;;0.50;1.00;;;;;;5060113;28;20237;-66
2022/12/14 11:07:08;;;;;;;20.50;16.97;;;0.60;99.90;;;;;;5062128;28;20422;-65
2022/12/14 11:09:36;;;;;;;50.63;19.30;;;0.50;1.00;;;;;;5054546;28;20453;-64
2022/12/14 11:12:01;;;;;;;37.10;18.20;;;0.50;1.00;;;;;;5054506;28;20421;-65
2022/12/14 11:14:27;;;;;;;23.53;16.80;;;0.70;1.00;;;;;;5049177;28;20475;-66
2022/12/14 11:16:53;;;;;;;22.70;17.30;;;0.40;1.00;;;;;;5047351;28;20182;-66
2022/12/14 11:19:21;;;;;;;21.33;15.40;;;0.30;1.00;;;;;;5047847;28;20445;-66
2022/12/14 11:21:49;;;;;;;24.83;17.73;;;0.50;99.90;;;;;;5050301;28;20170;-66
2022/12/14 11:24:26;;;;;;;19.70;15.00;;;0.60;99.90;;;;;;5049468;28;20445;-63
2022/12/14 11:27:02;;;;;;;26.83;17.50;;;0.70;1.00;;;;;;5048491;28;20440;-65
2022/12/14 11:29:28;;;;;;;24.97;17.73;;;;;;;;;;5042156;28;20463;-66
2022/12/14 11:31:53;;;;;;;20.87;16.60;;;1.10;1.00;;;;;;5049269;28;20429;-67
2022/12/14 11:34:29;;;;;;;21.20;16.73;;;1.10;99.90;;;;;;5048361;28;20473;-66
2022/12/14 11:36:55;;;;;;;24.13;18.00;;;1.00;1.00;;;;;;5049772;28;20178;-65
2022/12/14 11:39:23;;;;;;;26.03;19.17;;;1.10;1.00;;;;;;5050398;28;20429;-63
2022/12/14 11:41:57;;;;;;;27.30;18.53;;;1.00;1.00;;;;;;5047726;28;20226;-62
2022/12/14 11:44:25;;;;;;;20.83;15.87;;;0.90;99.90;;;;;;5049148;28;20440;-67
2022/12/14 11:46:53;;;;;;;23.67;17.10;;;0.70;99.90;;;;;;5049296;28;20437;-63
2022/12/14 11:49:24;;;;;;;27.43;17.53;;;0.70;1.00;;;;;;5045534;28;20437;-66
2022/12/14 11:51:54;;;;;;;24.17;17.47;;;0.80;1.00;;;;;;5047672;28;20914;-63
2022/12/14 11:54:19;;;;;;;25.70;18.50;;;0.80;1.00;;;;;;5047607;28;20527;-64
2022/12/14 11:56:49;;;;;;;40.53;19.43;;;0.90;1.00;;;;;;5049995;28;20776;-66
2022/12/14 11:59:17;;;;;;;35.00;18.60;;;1.00;99.90;;;;;;5051156;28;20175;-66
2022/12/14 12:01:43;;;;;;;26.10;19.00;;;1.00;1.00;;;;;;5047579;28;20443;-66
2022/12/14 12:04:14;;;;;;;39.83;18.30;;;0.90;1.00;;;;;;5048572;28;20453;-65
2022/12/14 12:06:41;;;;;;;28.83;18.40;;;0.90;1.00;;;;;;5049796;28;20501;-65
2022/12/14 12:09:25;;;;;;;28.07;17.30;;;1.00;99.90;;;;;;5046341;28;20453;-63
2022/12/14 12:11:51;;;;;;;36.23;18.43;;;1.10;1.00;;;;;;5042782;28;20433;-65
2022/12/14 12:14:34;;;;;;;28.03;17.33;;;1.10;1.00;;;;;;5048737;28;20961;-66
2022/12/14 12:17:00;;;;;;;63.57;19.93;;;1.10;1.00;;;;;;5045594;28;20785;-65
2022/12/14 12:19:37;;;;;;;102.43;23.20;;;1.30;99.90;;;;;;5048947;28;20457;-65
2022/12/14 12:22:07;;;;;;;70.47;20.50;;;1.30;1.00;;;;;;5046699;28;20441;-65
2022/12/14 12:24:54;;;;;;;34.73;17.10;;;1.20;99.90;;;;;;5047615;28;20930;-66
2022/12/14 12:27:20;;;;;;;27.23;15.13;;;1.30;1.00;;;;;;5041090;28;20590;-65
2022/12/14 12:30:27;;;;;;;27.43;15.77;;;1.30;1.00;;;;;;5048173;28;20461;-64
2022/12/14 12:32:58;;;;;;;74.43;21.37;;;1.40;99.90;;;;;;5032601;28;20555;-66
2022/12/14 12:35:38;;;;;;;83.57;21.50;;;1.50;99.90;;;;;;5045834;28;20429;-65
2022/12/14 12:38:16;;;;;;;115.53;25.40;;;1.60;1.00;;;;;;5045580;28;20428;-65
2022/12/14 12:41:05;;;;;;;37.33;18.40;;;1.60;1.00;;;;;;5043950;28;20534;-65
2022/12/14 12:43:40;;;;;;;21.97;16.57;;;1.70;1.00;;;;;;5026170;28;20520;-66
2022/12/14 12:46:19;;;;;;;67.20;19.80;;;1.70;1.00;;;;;;5027497;28;20433;-65
2022/12/14 12:49:17;;;;;;;35.67;18.47;;;1.70;1.00;;;;;;5025385;28;20965;-66
2022/12/14 12:51:53;;;;;;;39.40;18.93;;;1.60;99.90;;;;;;5007202;28;20935;-66
2022/12/14 12:54:34;;;;;;;65.37;21.20;;;1.60;1.00;;;;;;5027983;28;20485;-64
2022/12/14 12:57:01;;;;;;;32.43;16.27;;;1.60;1.00;;;;;;5027385;28;20467;-66
2022/12/14 12:59:29;;;;;;;39.53;17.23;;;1.50;1.00;;;;;;5025729;28;20533;-66
2022/12/14 13:02:00;;;;;;;25.27;17.10;;;1.50;99.90;;;;;;5026856;28;20669;-66
2022/12/14 13:04:37;;;;;;;31.30;18.13;;;1.50;30.90;;;;;;5033075;28;20410;-66
2022/12/14 13:07:09;;;;;;;25.27;15.77;;;1.50;99.90;;;;;;5027168;28;20430;-65
2022/12/14 13:09:47;;;;;;;23.23;17.07;;;1.60;99.90;;;;;;5023765;28;20974;-65
2022/12/14 13:12:38;;;;;;;30.87;18.17;;;1.60;1.00;;;;;;5037386;28;20510;-65
2022/12/14 13:15:15;;;;;;;46.47;16.80;;;1.50;99.90;;;;;;5024125;28;20457;-66